Time;durP1;ratioP1;P1;durP2;ratioP2;P2;SDS_P1;SDS_P2;PMS_P1;PMS_P2;Temp;Humidity;BMP_temperature;BMP_pressure;BME280_temperature;BME280_humidity;BME280_pressure;Samples;Min_cycle;Max_cycle;Signal;HPM_P1;HPM_P2
2022/10/23 00:01:27;;;;;;;14.73;6.45;;;13.50;99.90;;;;;;5114114;28;20172;-51
2022/10/23 00:03:56;;;;;;;9.93;5.93;;;13.40;99.90;;;;;;5114175;28;20198;-51
2022/10/23 00:06:22;;;;;;;13.77;6.72;;;13.40;99.90;;;;;;5097338;28;20192;-51
2022/10/23 00:08:48;;;;;;;18.85;9.80;;;13.40;99.90;;;;;;5093250;28;20647;-53
2022/10/23 00:11:16;;;;;;;16.70;8.77;;;13.40;99.90;;;;;;5093802;28;20168;-53
2022/10/23 00:13:42;;;;;;;16.52;9.15;;;13.40;99.90;;;;;;5093717;28;20170;-53
2022/10/23 00:16:09;;;;;;;20.10;9.55;;;13.40;99.90;;;;;;5092517;28;20173;-53
2022/10/23 00:18:36;;;;;;;15.88;8.00;;;13.40;99.90;;;;;;5092843;28;20640;-53
2022/10/23 00:21:02;;;;;;;22.08;9.13;;;13.40;99.90;;;;;;5093309;28;20173;-53
2022/10/23 00:23:28;;;;;;;21.00;8.10;;;13.30;99.90;;;;;;5093531;28;20172;-53
2022/10/23 00:25:53;;;;;;;19.05;7.88;;;13.30;99.90;;;;;;5093050;28;20169;-52
2022/10/23 00:28:19;;;;;;;14.02;8.20;;;13.30;99.90;;;;;;5093100;28;20174;-52
2022/10/23 00:30:45;;;;;;;14.85;8.35;;;13.20;99.90;;;;;;5075033;28;20177;-52
2022/10/23 00:33:10;;;;;;;15.35;8.52;;;13.20;99.90;;;;;;5093410;28;20175;-52
2022/10/23 00:35:40;;;;;;;15.52;9.13;;;13.20;99.90;;;;;;5092890;28;20170;-52
2022/10/23 00:38:07;;;;;;;14.80;8.70;;;13.20;99.90;;;;;;5092971;28;20169;-52
2022/10/23 00:40:32;;;;;;;19.27;9.93;;;13.10;99.90;;;;;;5092994;28;20162;-53
2022/10/23 00:42:58;;;;;;;14.23;9.13;;;13.20;99.90;;;;;;5093261;28;20573;-53
2022/10/23 00:45:27;;;;;;;24.55;11.25;;;13.20;99.90;;;;;;5092941;28;20617;-53
2022/10/23 00:47:53;;;;;;;16.52;10.35;;;13.20;99.90;;;;;;5093024;28;20205;-53
2022/10/23 00:50:21;;;;;;;12.90;9.27;;;13.10;99.90;;;;;;5092816;28;20168;-53
2022/10/23 00:52:50;;;;;;;19.45;10.35;;;13.10;99.90;;;;;;5092712;28;20165;-52
2022/10/23 00:55:17;;;;;;;12.10;8.77;;;13.10;99.90;;;;;;5092850;28;20306;-53
2022/10/23 00:57:44;;;;;;;13.55;7.40;;;13.10;99.90;;;;;;5085436;28;148054;-52
2022/10/23 01:00:26;;;;;;;13.43;7.22;;;13.10;99.90;;;;;;5078892;28;20268;-53
2022/10/23 01:02:53;;;;;;;13.60;7.00;;;13.10;99.90;;;;;;5093624;28;20629;-53
2022/10/23 01:05:23;;;;;;;17.27;7.88;;;13.10;99.90;;;;;;5093578;28;20526;-52
2022/10/23 01:08:00;;;;;;;10.75;7.85;;;13.10;99.90;;;;;;5093561;28;20205;-52
2022/10/23 01:10:46;;;;;;;15.50;7.20;;;13.10;99.90;;;;;;5093476;28;20527;-52
2022/10/23 01:13:22;;;;;;;16.98;8.10;;;13.10;99.90;;;;;;5093819;28;20214;-53
2022/10/23 01:16:15;;;;;;;15.30;7.82;;;13.10;99.90;;;;;;5093142;28;20617;-53
2022/10/23 01:19:08;;;;;;;16.00;7.10;;;13.10;99.90;;;;;;5087481;28;20173;-53
2022/10/23 01:21:51;;;;;;;21.42;7.72;;;13.10;99.90;;;;;;5093285;28;20973;-52
2022/10/23 01:24:23;;;;;;;21.38;7.50;;;13.10;99.90;;;;;;5092479;28;20612;-53
2022/10/23 01:26:51;;;;;;;13.02;7.07;;;13.00;99.90;;;;;;5092314;28;20209;-52
2022/10/23 01:29:35;;;;;;;14.93;6.72;;;13.00;99.90;;;;;;5093195;28;20202;-52
2022/10/23 01:32:09;;;;;;;16.60;7.03;;;13.00;99.90;;;;;;5093052;28;20199;-52
2022/10/23 01:34:46;;;;;;;12.02;6.82;;;13.00;99.90;;;;;;5092976;28;20599;-53
2022/10/23 01:37:14;;;;;;;10.88;6.70;;;13.00;99.90;;;;;;5093349;28;20161;-53
2022/10/23 01:39:47;;;;;;;18.70;6.70;;;13.00;99.90;;;;;;5093274;28;20201;-52
2022/10/23 01:42:18;;;;;;;9.43;5.72;;;13.00;99.90;;;;;;5093265;28;20211;-53
2022/10/23 01:44:49;;;;;;;15.30;5.32;;;13.00;99.90;;;;;;5093214;28;20685;-53
2022/10/23 01:47:18;;;;;;;15.93;5.68;;;13.00;99.90;;;;;;5092719;28;20250;-52
2022/10/23 01:49:47;;;;;;;16.15;5.40;;;13.00;99.90;;;;;;5092686;28;20164;-51
2022/10/23 01:52:14;;;;;;;10.88;5.82;;;13.00;99.90;;;;;;5075235;28;20201;-53
2022/10/23 01:54:43;;;;;;;10.73;5.72;;;12.90;99.90;;;;;;5093063;28;20568;-52
2022/10/23 01:57:11;;;;;;;9.70;5.07;;;13.00;99.90;;;;;;5092237;28;20173;-52
2022/10/23 01:59:41;;;;;;;13.20;5.30;;;13.00;99.90;;;;;;5092405;28;20286;-52
2022/10/23 02:02:09;;;;;;;10.00;5.20;;;13.00;99.90;;;;;;5092753;28;20201;-53
2022/10/23 02:04:49;;;;;;;7.30;4.93;;;12.90;99.90;;;;;;5092641;28;20164;-53
2022/10/23 02:07:15;;;;;;;15.80;4.45;;;12.90;99.90;;;;;;5092381;28;20224;-53
2022/10/23 02:09:40;;;;;;;11.95;4.53;;;12.90;99.90;;;;;;5092744;28;20494;-53
2022/10/23 02:12:09;;;;;;;7.80;4.25;;;13.00;99.90;;;;;;5092370;28;20197;-53
2022/10/23 02:14:55;;;;;;;14.77;4.95;;;12.90;99.90;;;;;;5092558;28;20210;-53
2022/10/23 02:17:59;;;;;;;8.98;4.45;;;13.00;99.90;;;;;;5074120;28;20525;-53
2022/10/23 02:20:37;;;;;;;15.85;4.25;;;13.00;99.90;;;;;;5092199;28;20587;-53
2022/10/23 02:23:37;;;;;;;15.93;4.63;;;13.00;99.90;;;;;;5091674;28;20173;-53
2022/10/23 02:26:16;;;;;;;12.27;4.85;;;12.90;99.90;;;;;;5092103;28;20157;-53
2022/10/23 02:28:54;;;;;;;15.18;4.95;;;12.80;99.90;;;;;;5092518;28;20173;-53
2022/10/23 02:31:21;;;;;;;12.07;4.43;;;12.90;99.90;;;;;;5092089;28;20166;-53
2022/10/23 02:33:48;;;;;;;10.90;4.90;;;12.90;99.90;;;;;;5091986;28;20530;-52
2022/10/23 02:36:15;;;;;;;9.50;4.45;;;12.90;99.90;;;;;;5091931;28;20168;-52
2022/10/23 02:38:42;;;;;;;8.68;3.72;;;12.90;99.90;;;;;;5091984;28;20165;-53
2022/10/23 02:41:32;;;;;;;7.88;4.05;;;12.90;99.90;;;;;;5092250;28;20176;-53
2022/10/23 02:44:19;;;;;;;8.60;3.88;;;12.90;99.90;;;;;;5091889;28;20246;-52
2022/10/23 02:46:49;;;;;;;9.32;3.88;;;12.90;99.90;;;;;;5091720;28;20656;-53
2022/10/23 02:49:28;;;;;;;12.05;4.55;;;12.90;99.90;;;;;;5091814;28;20223;-52
2022/10/23 02:52:28;;;;;;;4.20;3.42;;;12.80;99.90;;;;;;5091819;28;20161;-53
2022/10/23 02:54:57;;;;;;;10.68;4.18;;;12.90;99.90;;;;;;5088332;28;20264;-52
2022/10/23 02:57:29;;;;;;;8.20;4.30;;;12.90;99.90;;;;;;5091817;28;20165;-51
2022/10/23 03:00:22;;;;;;;10.95;3.95;;;12.90;99.90;;;;;;5091770;28;20260;-51
2022/10/23 03:03:07;;;;;;;9.60;4.82;;;12.90;99.90;;;;;;5088915;28;20177;-51
2022/10/23 03:05:36;;;;;;;11.85;4.55;;;12.90;99.90;;;;;;5091707;28;20164;-51
2022/10/23 03:08:10;;;;;;;13.68;3.88;;;12.90;99.90;;;;;;5091634;28;20211;-51
2022/10/23 03:10:36;;;;;;;8.32;3.92;;;13.00;99.90;;;;;;5091595;28;20181;-51
2022/10/23 03:13:02;;;;;;;8.73;4.15;;;12.90;99.90;;;;;;5091609;28;20185;-51
2022/10/23 03:15:27;;;;;;;7.78;3.97;;;12.90;99.90;;;;;;5091533;28;20172;-51
2022/10/23 03:17:53;;;;;;;9.98;4.05;;;12.90;99.90;;;;;;5091481;28;20249;-51
2022/10/23 03:20:18;;;;;;;11.60;4.28;;;12.90;99.90;;;;;;5056728;28;20169;-52
2022/10/23 03:22:44;;;;;;;8.23;3.83;;;12.90;99.90;;;;;;5091467;28;20208;-51
2022/10/23 03:25:10;;;;;;;8.55;4.22;;;12.90;99.90;;;;;;5091959;28;20170;-52
2022/10/23 03:27:35;;;;;;;7.65;3.72;;;12.90;99.90;;;;;;5091707;28;20299;-51
2022/10/23 03:30:02;;;;;;;8.90;4.30;;;12.90;99.90;;;;;;5091446;28;20203;-51
2022/10/23 03:32:28;;;;;;;8.52;3.90;;;12.90;99.90;;;;;;5091464;28;20161;-53
2022/10/23 03:34:53;;;;;;;7.85;4.20;;;12.90;99.90;;;;;;5091388;28;20172;-53
2022/10/23 03:37:19;;;;;;;9.13;4.03;;;12.90;99.90;;;;;;5091201;28;20222;-53
2022/10/23 03:39:44;;;;;;;7.35;3.85;;;12.80;99.90;;;;;;5091428;28;20205;-52
2022/10/23 03:42:10;;;;;;;9.52;4.57;;;12.90;99.90;;;;;;5091727;28;20170;-52
2022/10/23 03:44:35;;;;;;;5.45;3.70;;;12.90;99.90;;;;;;5091314;28;20192;-52
2022/10/23 03:47:01;;;;;;;7.50;4.47;;;12.90;99.90;;;;;;5091275;28;20205;-53
2022/10/23 03:49:27;;;;;;;8.68;4.97;;;12.80;99.90;;;;;;5091575;28;20173;-53
2022/10/23 03:51:52;;;;;;;16.90;4.47;;;12.90;99.90;;;;;;5094764;28;20177;-53
2022/10/23 03:54:23;;;;;;;9.68;4.22;;;12.90;99.90;;;;;;5095188;28;20178;-53
2022/10/23 03:56:49;;;;;;;8.68;4.63;;;12.80;99.90;;;;;;5094924;28;20177;-53
2022/10/23 03:59:15;;;;;;;6.82;4.00;;;12.80;99.90;;;;;;5094788;28;20213;-53
2022/10/23 04:01:41;;;;;;;8.95;4.60;;;12.80;99.90;;;;;;5095171;28;20176;-53
2022/10/23 04:04:06;;;;;;;5.28;3.83;;;12.80;99.90;;;;;;5077045;28;20640;-53
2022/10/23 04:06:32;;;;;;;13.88;5.72;;;12.70;99.90;;;;;;5094666;28;20680;-53
2022/10/23 04:08:57;;;;;;;8.30;5.10;;;12.80;99.90;;;;;;5094460;28;20222;-53
2022/10/23 04:11:23;;;;;;;5.63;4.13;;;12.80;99.90;;;;;;5094361;28;20681;-53
2022/10/23 04:13:48;;;;;;;9.35;4.80;;;12.80;99.90;;;;;;5094524;28;20648;-53
2022/10/23 04:16:14;;;;;;;7.10;4.63;;;12.70;99.90;;;;;;5076372;28;20518;-53
2022/10/23 04:18:41;;;;;;;10.77;4.30;;;12.70;99.90;;;;;;5094852;28;20174;-52
2022/10/23 04:21:07;;;;;;;7.38;4.20;;;12.80;99.90;;;;;;5094447;28;20239;-53
2022/10/23 04:23:32;;;;;;;8.95;3.90;;;12.80;99.90;;;;;;5094378;28;20567;-53
2022/10/23 04:25:58;;;;;;;6.70;4.32;;;12.80;99.90;;;;;;5093983;28;20177;-53
2022/10/23 04:28:24;;;;;;;12.63;5.38;;;12.80;99.90;;;;;;5094332;28;20180;-53
2022/10/23 04:30:50;;;;;;;9.63;4.20;;;12.80;99.90;;;;;;5094358;28;20526;-52
2022/10/23 04:33:16;;;;;;;11.75;5.90;;;12.70;99.90;;;;;;5094248;28;20172;-53
2022/10/23 04:35:41;;;;;;;10.48;4.68;;;12.70;99.90;;;;;;5094591;28;20173;-53
2022/10/23 04:38:07;;;;;;;7.63;4.68;;;12.80;99.90;;;;;;5094173;28;20219;-53
2022/10/23 04:40:33;;;;;;;12.90;4.43;;;12.80;99.90;;;;;;5094084;28;20169;-53
2022/10/23 04:42:58;;;;;;;12.32;5.15;;;12.80;99.90;;;;;;5094003;28;20173;-52
2022/10/23 04:45:24;;;;;;;10.27;4.38;;;12.80;99.90;;;;;;5093951;28;20296;-53
2022/10/23 04:47:52;;;;;;;6.75;3.78;;;12.80;99.90;;;;;;5093836;28;20207;-53
2022/10/23 04:50:18;;;;;;;9.35;4.45;;;12.80;99.90;;;;;;5094153;28;20511;-53
2022/10/23 04:52:43;;;;;;;9.93;4.35;;;12.80;99.90;;;;;;5093811;28;20177;-52
2022/10/23 04:55:09;;;;;;;8.00;3.80;;;12.80;99.90;;;;;;5094312;28;20169;-53
2022/10/23 04:57:34;;;;;;;8.65;4.05;;;12.70;99.90;;;;;;5093563;28;20172;-53
2022/10/23 05:00:00;;;;;;;10.27;4.40;;;12.70;99.90;;;;;;5093740;28;20161;-53
2022/10/23 05:02:26;;;;;;;9.75;4.00;;;12.80;99.90;;;;;;5092460;28;20223;-53
2022/10/23 05:04:52;;;;;;;10.27;3.80;;;12.70;99.90;;;;;;5093190;28;20173;-52
2022/10/23 05:07:17;;;;;;;16.33;4.28;;;12.70;99.90;;;;;;5093273;28;20201;-53
2022/10/23 05:09:43;;;;;;;10.02;3.80;;;12.70;99.90;;;;;;5093512;28;20192;-51
2022/10/23 05:12:08;;;;;;;6.13;4.25;;;12.70;99.90;;;;;;5094096;28;20259;-53
2022/10/23 05:14:34;;;;;;;15.60;4.72;;;12.70;99.90;;;;;;5093487;28;20166;-53
2022/10/23 05:17:04;;;;;;;7.85;4.10;;;12.70;99.90;;;;;;5093320;28;20221;-52
2022/10/23 05:19:36;;;;;;;11.73;4.43;;;12.60;99.90;;;;;;5093381;28;20165;-53
2022/10/23 05:22:03;;;;;;;8.20;3.80;;;12.60;99.90;;;;;;5093243;28;20162;-52
2022/10/23 05:24:29;;;;;;;6.50;3.70;;;12.60;99.90;;;;;;5093279;28;20237;-53
2022/10/23 05:26:55;;;;;;;5.03;4.07;;;12.70;99.90;;;;;;5093099;28;20736;-53
2022/10/23 05:29:22;;;;;;;6.25;3.92;;;12.60;99.90;;;;;;5093424;28;20170;-53
2022/10/23 05:31:51;;;;;;;13.40;5.10;;;12.70;99.90;;;;;;5093084;28;20227;-52
2022/10/23 05:34:19;;;;;;;9.52;4.22;;;12.60;99.90;;;;;;5093004;28;20172;-53
2022/10/23 05:36:45;;;;;;;9.52;4.47;;;12.50;99.90;;;;;;5092802;28;20252;-52
2022/10/23 05:39:10;;;;;;;6.70;4.45;;;12.50;99.90;;;;;;5092887;28;20240;-53
2022/10/23 05:41:36;;;;;;;9.50;4.95;;;12.50;99.90;;;;;;5092847;28;20607;-53
2022/10/23 05:44:01;;;;;;;11.65;4.53;;;12.60;99.90;;;;;;5092868;28;20268;-52
2022/10/23 05:46:27;;;;;;;10.68;4.30;;;12.60;99.90;;;;;;5093015;28;20204;-53
2022/10/23 05:48:53;;;;;;;10.20;4.63;;;12.60;99.90;;;;;;5092927;28;20170;-53
2022/10/23 05:51:21;;;;;;;9.00;4.40;;;12.50;99.90;;;;;;5092838;28;20516;-52
2022/10/23 05:53:51;;;;;;;9.18;4.32;;;12.50;99.90;;;;;;5092578;28;20165;-53
2022/10/23 05:56:18;;;;;;;8.55;4.55;;;12.50;99.90;;;;;;5092594;28;20176;-53
2022/10/23 05:58:44;;;;;;;5.55;4.07;;;12.50;99.90;;;;;;5092424;28;20256;-52
2022/10/23 06:01:12;;;;;;;7.50;3.95;;;12.50;99.90;;;;;;5092867;28;20640;-53
2022/10/23 06:03:39;;;;;;;9.70;4.50;;;12.50;99.90;;;;;;5092849;28;20629;-53
2022/10/23 06:06:06;;;;;;;6.90;3.53;;;12.50;99.90;;;;;;5092136;28;20173;-52
2022/10/23 06:08:32;;;;;;;6.90;3.72;;;12.50;99.90;;;;;;5092060;28;20173;-53
2022/10/23 06:11:03;;;;;;;9.82;3.88;;;12.50;99.90;;;;;;5092396;28;20165;-53
2022/10/23 06:13:29;;;;;;;10.90;3.78;;;12.50;99.90;;;;;;5091893;28;20521;-52
2022/10/23 06:15:54;;;;;;;6.28;3.42;;;12.50;99.90;;;;;;5092010;28;20158;-53
2022/10/23 06:18:20;;;;;;;7.22;3.70;;;12.40;99.90;;;;;;5091575;28;20210;-53
2022/10/23 06:20:45;;;;;;;11.82;4.20;;;12.50;99.90;;;;;;5092035;28;20165;-52
2022/10/23 06:23:11;;;;;;;11.65;3.78;;;12.40;99.90;;;;;;5092370;28;20161;-52
2022/10/23 06:25:36;;;;;;;6.07;3.60;;;12.50;99.90;;;;;;5092138;28;20169;-53
2022/10/23 06:28:02;;;;;;;6.68;3.78;;;12.50;99.90;;;;;;5091672;28;20224;-52
2022/10/23 06:30:27;;;;;;;8.65;4.00;;;12.50;99.90;;;;;;5091930;28;20165;-53
2022/10/23 06:32:53;;;;;;;5.22;3.35;;;12.50;99.90;;;;;;5092023;28;20173;-53
2022/10/23 06:35:18;;;;;;;9.65;3.75;;;12.50;99.90;;;;;;5091925;28;20165;-53
2022/10/23 06:37:44;;;;;;;7.35;3.22;;;12.50;99.90;;;;;;5092209;28;20212;-53
2022/10/23 06:40:10;;;;;;;7.20;3.53;;;12.60;99.90;;;;;;5092235;28;20169;-53
2022/10/23 06:42:35;;;;;;;8.38;3.78;;;12.60;99.90;;;;;;5092004;28;20251;-53
2022/10/23 06:45:01;;;;;;;7.50;3.50;;;12.60;99.90;;;;;;5091898;28;20165;-53
2022/10/23 06:47:26;;;;;;;11.98;4.65;;;12.60;99.90;;;;;;5092133;28;20201;-53
2022/10/23 06:49:52;;;;;;;5.72;3.45;;;12.70;99.90;;;;;;5091848;28;20527;-53
2022/10/23 06:52:17;;;;;;;7.20;3.30;;;12.70;99.90;;;;;;5091851;28;20165;-53
2022/10/23 06:54:43;;;;;;;6.00;2.92;;;12.70;99.90;;;;;;5091710;28;20166;-52
2022/10/23 06:57:08;;;;;;;9.23;3.70;;;12.80;99.90;;;;;;5092173;28;20625;-52
2022/10/23 06:59:34;;;;;;;10.88;3.63;;;12.80;99.90;;;;;;5091496;28;20242;-53
2022/10/23 07:01:59;;;;;;;11.65;3.55;;;12.90;99.90;;;;;;5091611;28;20240;-53
2022/10/23 07:04:25;;;;;;;7.95;3.88;;;12.90;99.90;;;;;;5091436;28;20530;-52
2022/10/23 07:06:53;;;;;;;5.93;3.05;;;12.90;99.90;;;;;;5091427;28;20208;-52
2022/10/23 07:09:19;;;;;;;7.30;2.97;;;13.00;99.90;;;;;;5091716;28;20711;-53
2022/10/23 07:11:44;;;;;;;8.25;3.20;;;13.00;99.90;;;;;;5091694;28;20193;-52
2022/10/23 07:14:10;;;;;;;12.80;3.22;;;13.00;99.90;;;;;;5091954;28;20169;-52
2022/10/23 07:16:35;;;;;;;10.50;3.28;;;13.00;99.90;;;;;;5091672;28;20232;-54
2022/10/23 07:19:01;;;;;;;4.57;2.72;;;13.10;99.90;;;;;;5091595;28;20226;-52
2022/10/23 07:21:31;;;;;;;13.63;3.20;;;13.10;99.90;;;;;;5091594;28;20165;-51
2022/10/23 07:23:57;;;;;;;8.27;3.47;;;13.20;99.90;;;;;;5091648;28;20173;-52
2022/10/23 07:26:23;;;;;;;7.43;2.50;;;13.20;99.90;;;;;;5094125;28;20236;-52
2022/10/23 07:28:53;;;;;;;7.78;2.70;;;13.30;99.90;;;;;;5095469;28;20300;-51
2022/10/23 07:31:22;;;;;;;5.68;2.95;;;13.40;99.90;;;;;;5095131;28;20169;-51
2022/10/23 07:33:48;;;;;;;5.30;3.00;;;13.40;99.90;;;;;;5095410;28;20226;-52
2022/10/23 07:36:14;;;;;;;6.88;2.83;;;13.50;99.90;;;;;;5095544;28;20177;-51
2022/10/23 07:38:40;;;;;;;13.02;3.05;;;13.50;99.90;;;;;;5095949;28;20521;-51
2022/10/23 07:41:06;;;;;;;4.07;2.55;;;13.60;99.90;;;;;;5095375;28;20221;-52
2022/10/23 07:43:32;;;;;;;6.50;3.25;;;13.70;99.90;;;;;;5095415;28;20569;-51
2022/10/23 07:45:58;;;;;;;6.25;2.38;;;13.70;99.90;;;;;;5095346;28;20169;-51
2022/10/23 07:48:26;;;;;;;7.30;3.10;;;13.90;99.90;;;;;;5095328;28;20563;-51
2022/10/23 07:50:52;;;;;;;5.47;3.03;;;13.90;99.90;;;;;;5095299;28;20181;-51
2022/10/23 07:53:24;;;;;;;3.63;2.58;;;14.00;99.90;;;;;;5100603;28;20177;-50
2022/10/23 07:56:01;;;;;;;9.13;3.00;;;14.20;99.90;;;;;;5111169;28;20165;-53
2022/10/23 07:58:28;;;;;;;4.25;2.58;;;14.40;99.90;;;;;;5092892;28;20212;-50
2022/10/23 08:00:57;;;;;;;8.23;2.72;;;14.50;99.90;;;;;;5093394;28;20179;-49
2022/10/23 08:03:24;;;;;;;8.25;2.70;;;14.70;99.90;;;;;;5093652;28;20188;-52
2022/10/23 08:05:51;;;;;;;8.50;2.55;;;14.70;99.90;;;;;;5093253;28;20181;-52
2022/10/23 08:08:17;;;;;;;4.20;2.78;;;14.80;99.90;;;;;;5092750;28;20741;-51
2022/10/23 08:10:44;;;;;;;5.05;2.63;;;14.90;99.90;;;;;;5093316;28;20177;-48
2022/10/23 08:13:12;;;;;;;9.15;2.53;;;15.10;99.90;;;;;;5093571;28;20203;-50
2022/10/23 08:15:38;;;;;;;4.15;2.35;;;15.20;99.90;;;;;;5093494;28;20660;-49
2022/10/23 08:18:03;;;;;;;3.47;2.75;;;15.30;99.90;;;;;;5093010;28;20191;-53
2022/10/23 08:20:29;;;;;;;7.25;2.53;;;15.30;99.90;;;;;;5093130;28;20169;-53
2022/10/23 08:22:55;;;;;;;5.20;2.40;;;15.30;99.90;;;;;;5093098;28;20493;-49
2022/10/23 08:25:21;;;;;;;8.40;2.58;;;15.30;99.90;;;;;;5093000;28;20193;-51
2022/10/23 08:27:46;;;;;;;4.60;2.40;;;15.40;99.90;;;;;;5092953;28;20240;-47
2022/10/23 08:30:12;;;;;;;10.90;2.42;;;15.50;99.90;;;;;;5093458;28;20523;-50
2022/10/23 08:32:38;;;;;;;8.00;2.60;;;15.80;99.90;;;;;;5093158;28;20200;-51
2022/10/23 08:35:03;;;;;;;7.60;2.50;;;15.80;99.90;;;;;;5092627;28;20174;-54
2022/10/23 08:37:29;;;;;;;5.32;2.42;;;15.60;99.90;;;;;;5092560;28;20169;-54
2022/10/23 08:39:55;;;;;;;5.50;2.33;;;15.70;99.90;;;;;;5092518;28;20222;-54
2022/10/23 08:42:25;;;;;;;4.90;2.17;;;15.70;99.90;;;;;;5092825;28;20177;-53
2022/10/23 08:45:00;;;;;;;4.07;2.30;;;15.70;99.90;;;;;;5092375;28;20157;-49
2022/10/23 08:47:48;;;;;;;5.85;2.80;;;15.80;99.90;;;;;;5092065;28;20253;-48
2022/10/23 08:50:25;;;;;;;5.90;2.28;;;15.90;99.90;;;;;;5092450;28;20641;-50
2022/10/23 08:53:14;;;;;;;6.68;3.08;;;16.00;99.90;;;;;;5092480;28;20161;-56
2022/10/23 08:55:48;;;;;;;6.18;2.53;;;16.10;99.90;;;;;;5092508;28;20244;-48
2022/10/23 08:58:35;;;;;;;7.63;3.13;;;16.20;99.90;;;;;;5092191;28;20212;-53
2022/10/23 09:01:11;;;;;;;7.15;2.90;;;16.40;99.90;;;;;;5092215;28;20169;-53
2022/10/23 09:03:36;;;;;;;5.07;2.20;;;16.60;99.90;;;;;;5092012;28;20252;-53
2022/10/23 09:06:02;;;;;;;3.80;2.42;;;16.70;99.90;;;;;;5092208;28;20256;-53
2022/10/23 09:08:45;;;;;;;3.42;2.40;;;16.70;99.90;;;;;;5092327;28;20232;-53
2022/10/23 09:11:15;;;;;;;9.35;2.40;;;16.90;99.90;;;;;;5090922;28;20177;-53
2022/10/23 09:14:05;;;;;;;7.95;2.47;;;16.90;99.90;;;;;;5092349;28;20169;-53
2022/10/23 09:17:01;;;;;;;7.07;2.33;;;17.20;99.90;;;;;;5092237;28;20183;-53
2022/10/23 09:19:30;;;;;;;5.35;2.40;;;17.20;99.90;;;;;;5091773;28;20166;-52
2022/10/23 09:21:56;;;;;;;9.00;2.55;;;17.40;99.90;;;;;;5091889;28;20193;-52
2022/10/23 09:24:24;;;;;;;5.75;2.35;;;17.30;99.90;;;;;;5092052;28;20573;-52
2022/10/23 09:26:52;;;;;;;12.10;2.85;;;17.30;99.90;;;;;;5091709;28;20288;-52
2022/10/23 09:29:34;;;;;;;5.70;2.20;;;17.40;99.90;;;;;;5091670;28;20195;-52
2022/10/23 09:32:03;;;;;;;7.65;2.97;;;17.40;99.90;;;;;;5091699;28;20263;-52
2022/10/23 09:34:31;;;;;;;7.13;1.95;;;17.50;99.90;;;;;;5091468;28;20184;-52
2022/10/23 09:37:02;;;;;;;7.55;2.60;;;17.50;99.90;;;;;;5091779;28;20254;-52
2022/10/23 09:39:34;;;;;;;3.53;2.13;;;17.60;99.90;;;;;;5091125;28;20169;-52
2022/10/23 09:42:01;;;;;;;8.25;2.20;;;17.70;99.90;;;;;;5073396;28;20169;-49
2022/10/23 09:44:33;;;;;;;4.38;2.20;;;17.60;99.90;;;;;;5091252;28;20665;-55
2022/10/23 09:47:07;;;;;;;7.07;2.53;;;17.50;99.90;;;;;;5091294;28;20209;-51
2022/10/23 09:49:33;;;;;;;3.95;1.92;;;17.50;99.90;;;;;;5090304;28;20558;-50
2022/10/23 09:52:11;;;;;;;4.20;2.03;;;17.40;99.90;;;;;;5091229;28;20280;-51
2022/10/23 09:54:50;;;;;;;11.80;2.60;;;17.30;99.90;;;;;;5091159;28;20169;-51
2022/10/23 09:57:48;;;;;;;6.35;2.33;;;17.30;99.90;;;;;;5090915;28;20173;-52
2022/10/23 10:00:19;;;;;;;6.22;2.35;;;17.30;99.90;;;;;;5050923;28;20290;-49
2022/10/23 10:03:19;;;;;;;2.22;2.00;;;17.20;99.90;;;;;;5051306;28;20178;-54
2022/10/23 10:05:55;;;;;;;4.85;2.33;;;17.20;99.90;;;;;;5046925;28;20206;-52
2022/10/23 10:08:27;;;;;;;5.90;2.30;;;17.30;99.90;;;;;;5050720;28;20240;-52
2022/10/23 10:11:09;;;;;;;3.95;2.60;;;17.30;99.90;;;;;;5050347;28;20177;-48
2022/10/23 10:13:41;;;;;;;4.63;2.10;;;17.20;99.90;;;;;;5050867;28;20182;-50
2022/10/23 10:16:28;;;;;;;3.92;2.10;;;17.20;99.90;;;;;;5050642;28;20507;-51
2022/10/23 10:19:12;;;;;;;7.50;2.05;;;17.10;99.90;;;;;;5048492;28;20181;-52
2022/10/23 10:21:44;;;;;;;5.82;1.95;;;17.20;99.90;;;;;;5050567;28;20190;-51
2022/10/23 10:24:12;;;;;;;6.65;2.80;;;17.20;99.90;;;;;;5050769;28;20229;-51
2022/10/23 10:26:54;;;;;;;7.60;2.35;;;17.30;99.90;;;;;;5050898;28;20203;-51
2022/10/23 10:29:29;;;;;;;7.05;2.17;;;17.30;99.90;;;;;;5050567;28;20185;-51
2022/10/23 10:32:36;;;;;;;3.55;1.90;;;17.40;99.90;;;;;;5050725;28;20182;-51
2022/10/23 10:35:23;;;;;;;2.83;1.80;;;17.30;99.90;;;;;;5032856;28;20277;-51
2022/10/23 10:38:11;;;;;;;6.43;2.50;;;17.20;99.90;;;;;;5050331;28;20216;-51
2022/10/23 10:41:18;;;;;;;3.63;2.50;;;17.30;99.90;;;;;;5050344;28;20175;-51
2022/10/23 10:44:20;;;;;;;4.07;2.08;;;17.30;99.90;;;;;;5050388;28;20537;-51
2022/10/23 10:46:55;;;;;;;5.18;2.03;;;17.30;99.90;;;;;;5050273;28;20292;-52
2022/10/23 10:49:49;;;;;;;3.60;2.20;;;17.20;99.90;;;;;;5050607;28;20170;-52
2022/10/23 10:52:44;;;;;;;5.28;2.15;;;17.20;99.90;;;;;;5050117;28;20189;-52
2022/10/23 10:55:31;;;;;;;5.25;2.08;;;17.20;99.90;;;;;;5050870;28;20215;-51
2022/10/23 10:58:01;;;;;;;3.58;1.90;;;17.20;99.90;;;;;;5057427;28;20273;-51
2022/10/23 11:00:29;;;;;;;4.43;1.70;;;17.20;99.90;;;;;;5093374;28;20248;-52
2022/10/23 11:03:37;;;;;;;4.28;1.75;;;17.20;99.90;;;;;;5094769;28;20177;-51
2022/10/23 11:06:04;;;;;;;3.17;1.50;;;17.20;99.90;;;;;;5094157;28;20184;-53
2022/10/23 11:08:39;;;;;;;6.47;1.65;;;17.20;99.90;;;;;;5094548;28;20616;-54
2022/10/23 11:11:25;;;;;;;4.55;1.50;;;17.10;99.90;;;;;;5094257;28;20210;-54
2022/10/23 11:13:52;;;;;;;6.28;1.73;;;17.00;99.90;;;;;;5094494;28;20168;-52
2022/10/23 11:16:22;;;;;;;2.53;1.67;;;16.90;99.90;;;;;;5094337;28;20178;-53
2022/10/23 11:19:17;;;;;;;2.38;1.70;;;16.80;99.90;;;;;;5094555;28;20177;-55
2022/10/23 11:21:46;;;;;;;3.20;1.70;;;16.90;99.90;;;;;;5093561;28;20174;-54
2022/10/23 11:24:15;;;;;;;5.07;1.65;;;16.80;99.90;;;;;;5093566;28;20173;-54
2022/10/23 11:26:50;;;;;;;8.52;2.28;;;16.70;99.90;;;;;;5092806;28;20209;-54
2022/10/23 11:29:43;;;;;;;9.18;2.03;;;16.70;99.90;;;;;;5093785;28;20201;-53
2022/10/23 11:32:21;;;;;;;4.45;2.17;;;16.70;99.90;;;;;;5093649;28;20170;-54
2022/10/23 11:34:55;;;;;;;4.18;1.70;;;16.80;99.90;;;;;;5093635;28;20168;-54
2022/10/23 11:37:23;;;;;;;1.92;1.77;;;16.80;99.90;;;;;;5093859;28;20180;-54
2022/10/23 11:40:01;;;;;;;4.97;2.38;;;16.90;99.90;;;;;;5094046;28;20207;-54
2022/10/23 11:42:33;;;;;;;5.70;1.73;;;17.20;99.90;;;;;;5106508;28;20278;-54
2022/10/23 11:44:59;;;;;;;4.95;1.80;;;17.50;99.90;;;;;;5114320;28;20563;-54
2022/10/23 11:47:41;;;;;;;8.65;5.57;;;17.70;99.90;;;;;;5095938;28;20204;-54
2022/10/23 11:50:06;;;;;;;6.25;3.85;;;17.90;99.90;;;;;;5114240;28;20554;-52
2022/10/23 11:52:39;;;;;;;4.97;3.10;;;18.10;99.90;;;;;;5114047;28;20193;-55
2022/10/23 11:55:25;;;;;;;8.68;6.78;;;18.10;99.90;;;;;;5113977;28;20205;-54
2022/10/23 11:58:03;;;;;;;6.28;4.10;;;18.00;99.90;;;;;;5095958;28;20220;-54
2022/10/23 12:00:31;;;;;;;10.77;3.80;;;18.00;99.90;;;;;;5113916;28;20225;-55
2022/10/23 12:02:57;;;;;;;10.52;6.35;;;18.10;99.90;;;;;;5113721;28;20153;-54
2022/10/23 12:05:36;;;;;;;12.00;6.97;;;18.10;99.90;;;;;;5113727;28;20168;-54
2022/10/23 12:08:04;;;;;;;6.93;2.88;;;18.20;99.90;;;;;;5113923;28;20215;-55
2022/10/23 12:10:33;;;;;;;5.93;2.78;;;18.30;99.90;;;;;;5113552;28;20647;-54
2022/10/23 12:13:04;;;;;;;5.55;3.35;;;18.20;99.90;;;;;;5113130;28;20168;-55
2022/10/23 12:15:31;;;;;;;6.10;2.00;;;18.20;99.90;;;;;;5113694;28;20242;-54
2022/10/23 12:18:12;;;;;;;6.25;3.50;;;18.20;99.90;;;;;;5113648;28;20168;-55
2022/10/23 12:20:56;;;;;;;11.00;7.35;;;18.20;99.90;;;;;;5113853;28;20203;-54
2022/10/23 12:23:37;;;;;;;17.50;10.07;;;18.30;99.90;;;;;;5113512;28;20164;-54
2022/10/23 12:26:12;;;;;;;12.60;7.93;;;18.40;99.90;;;;;;5096086;28;20172;-54
2022/10/23 12:28:55;;;;;;;8.48;4.03;;;18.40;99.90;;;;;;5113621;28;20204;-55
2022/10/23 12:31:33;;;;;;;12.57;7.20;;;18.40;99.90;;;;;;5113552;28;20251;-54
2022/10/23 12:34:08;;;;;;;16.70;8.77;;;18.30;99.90;;;;;;5113165;28;20161;-54
2022/10/23 12:36:53;;;;;;;11.63;5.55;;;18.30;99.90;;;;;;5113209;28;20267;-54
2022/10/23 12:39:29;;;;;;;9.65;5.50;;;18.20;99.90;;;;;;5113133;28;20177;-54
2022/10/23 12:41:55;;;;;;;15.73;8.73;;;18.30;99.90;;;;;;5113056;28;20164;-54
2022/10/23 12:44:24;;;;;;;18.80;8.88;;;18.30;99.90;;;;;;5113086;28;20164;-54
2022/10/23 12:46:53;;;;;;;18.30;6.53;;;18.30;99.90;;;;;;5113151;28;20227;-54
2022/10/23 12:49:21;;;;;;;34.33;16.10;;;18.30;99.90;;;;;;5112921;28;20169;-54
2022/10/23 12:52:15;;;;;;;10.68;6.53;;;18.30;99.90;;;;;;5112901;28;20186;-52
2022/10/23 12:54:41;;;;;;;9.70;4.35;;;18.20;99.90;;;;;;5113109;28;20183;-53
2022/10/23 12:57:24;;;;;;;33.70;15.20;;;18.20;99.90;;;;;;5113300;28;20271;-53
2022/10/23 12:59:56;;;;;;;10.90;8.68;;;18.20;99.90;;;;;;5112587;28;20216;-53
2022/10/23 13:02:28;;;;;;;5.28;3.88;;;18.20;99.90;;;;;;5112718;28;20161;-54
2022/10/23 13:04:56;;;;;;;5.60;3.65;;;18.10;99.90;;;;;;5112521;28;20183;-54